createdAt,value
2023-03-06T00:02:27.456Z,7.70
2023-03-06T00:07:29.260Z,6.40
2023-03-06T00:12:31.650Z,8.30
2023-03-06T00:17:33.631Z,9.50
2023-03-06T00:22:35.537Z,8.30
2023-03-06T00:27:37.384Z,7.90
2023-03-06T00:32:39.163Z,6.50
2023-03-06T00:37:41.448Z,7.10
2023-03-06T00:42:43.325Z,7.10
2023-03-06T00:47:45.095Z,7.60
2023-03-06T00:52:46.974Z,7.20
2023-03-06T00:57:48.845Z,7.40
2023-03-06T01:02:50.827Z,7.70
2023-03-06T01:07:52.699Z,7.50
2023-03-06T01:12:55.472Z,6.20
2023-03-06T01:17:57.173Z,7.80
2023-03-06T01:22:59.352Z,5.80
2023-03-06T01:28:01.125Z,6.70
2023-03-06T01:33:02.899Z,7.80
2023-03-06T01:38:04.777Z,8.70
2023-03-06T01:43:28.676Z,8.50
2023-03-06T01:48:30.753Z,6.70
2023-03-06T01:53:32.946Z,6.90
2023-03-06T01:58:35.644Z,6.50
2023-03-06T02:03:38.742Z,7.40
2023-03-06T02:08:40.619Z,7.20
2023-03-06T02:13:45.083Z,6.10
2023-03-06T02:18:47.140Z,6.20
2023-03-06T02:24:15.643Z,7.00
2023-03-06T02:29:24.194Z,6.10
2023-03-06T02:34:25.948Z,6.50
2023-03-06T02:39:30.789Z,7.20
2023-03-06T02:44:35.684Z,6.50
2023-03-06T02:49:37.311Z,6.00
2023-03-06T02:54:39.490Z,5.90
2023-03-06T02:59:41.265Z,5.60
2023-03-06T03:04:43.172Z,6.60
2023-03-06T03:09:45.009Z,6.60
2023-03-06T03:14:48.324Z,6.50
2023-03-06T03:19:50.200Z,6.40
2023-03-06T03:24:51.945Z,6.80
2023-03-06T03:29:57.033Z,6.40
2023-03-06T03:34:58.714Z,6.80
2023-03-06T03:40:00.784Z,5.70
2023-03-06T03:45:03.134Z,6.70
2023-03-06T03:50:05.561Z,5.40
2023-03-06T03:55:08.258Z,6.00
2023-03-06T04:00:15.560Z,5.50
2023-03-06T04:05:18.253Z,5.60
2023-03-06T04:10:20.234Z,5.40
2023-03-06T04:15:23.031Z,5.80
2023-03-06T04:20:25.620Z,6.00
2023-03-06T04:25:27.396Z,6.60
2023-03-06T04:30:29.276Z,5.50
2023-03-06T04:35:31.812Z,5.70
2023-03-06T04:40:36.129Z,6.00
2023-03-06T04:45:38.118Z,6.10
2023-03-06T04:50:40.166Z,6.00
2023-03-06T04:55:42.556Z,5.50
2023-03-06T05:00:44.595Z,6.70
2023-03-06T05:05:46.609Z,7.10
2023-03-06T05:10:55.648Z,7.10
2023-03-06T05:16:06.919Z,7.30
2023-03-06T05:21:09.030Z,6.60
2023-03-06T05:26:13.294Z,7.80
2023-03-06T05:31:16.160Z,7.10
2023-03-06T05:41:19.920Z,7.20
2023-03-06T05:46:22.490Z,7.50
2023-03-06T05:51:26.348Z,7.50
2023-03-06T05:56:28.126Z,7.10
2023-03-06T06:01:29.994Z,6.80
2023-03-06T06:06:31.961Z,7.70
2023-03-06T06:11:33.715Z,6.20
2023-03-06T06:16:36.043Z,5.90
2023-03-06T06:21:37.909Z,5.70
2023-03-06T06:26:40.494Z,5.20
2023-03-06T06:31:42.266Z,6.10
2023-03-06T06:36:44.252Z,6.20
2023-03-06T06:42:02.319Z,6.10
2023-03-06T06:47:22.379Z,6.40
2023-03-06T06:52:25.269Z,5.80
2023-03-06T06:57:27.190Z,6.50
2023-03-06T07:02:28.963Z,5.90
2023-03-06T07:07:33.613Z,6.00
2023-03-06T07:12:36.816Z,5.60
2023-03-06T07:17:39.150Z,5.50
2023-03-06T07:22:50.750Z,5.40
2023-03-06T07:27:54.727Z,5.40
2023-03-06T07:32:58.346Z,5.50
2023-03-06T07:38:00.636Z,6.20
2023-03-06T07:43:19.018Z,5.30
2023-03-06T07:48:21.284Z,6.00
2023-03-06T07:53:24.287Z,6.10
2023-03-06T07:58:26.474Z,5.70
2023-03-06T08:03:28.164Z,6.50
2023-03-06T08:08:30.020Z,5.90
2023-03-06T08:13:32.307Z,5.90
2023-03-06T08:18:35.589Z,5.80
2023-03-06T08:23:37.601Z,5.60
2023-03-06T08:28:39.894Z,4.90
2023-03-06T08:33:42.266Z,4.80
2023-03-06T08:38:44.367Z,4.70
2023-03-06T08:43:47.351Z,4.80
2023-03-06T08:48:49.141Z,4.00
2023-03-06T08:53:51.517Z,4.10
2023-03-06T08:58:55.271Z,3.40
2023-03-06T09:04:03.941Z,3.20
2023-03-06T09:09:07.076Z,3.50
2023-03-06T09:14:09.561Z,3.00
2023-03-06T09:19:11.750Z,3.20
2023-03-06T09:24:13.628Z,3.00
2023-03-06T09:29:16.698Z,2.70
2023-03-06T09:34:18.624Z,2.70
2023-03-06T09:39:20.488Z,2.70
2023-03-06T09:44:29.033Z,2.30
2023-03-06T09:50:05.611Z,1.90
2023-03-06T09:55:13.537Z,2.00
2023-03-06T10:00:19.063Z,1.90
2023-03-06T10:05:25.685Z,2.50
2023-03-06T10:10:58.479Z,2.10
2023-03-06T10:16:29.347Z,2.20
2023-03-06T10:27:08.937Z,2.20
2023-03-06T10:32:24.446Z,2.60
2023-03-06T10:37:30.413Z,2.00
2023-03-06T10:42:34.324Z,2.20
2023-03-06T10:47:37.828Z,2.50
2023-03-06T10:52:39.819Z,2.30
2023-03-06T10:57:41.901Z,2.70
2023-03-06T11:02:43.679Z,2.00
2023-03-06T11:07:59.060Z,2.30
2023-03-06T11:13:07.190Z,1.90
2023-03-06T11:18:09.168Z,2.50
2023-03-06T11:23:26.407Z,1.80
2023-03-06T11:28:32.253Z,1.70
2023-03-06T11:33:42.007Z,2.70
2023-03-06T11:38:50.879Z,2.60
2023-03-06T11:44:00.843Z,2.10
2023-03-06T11:49:26.265Z,2.00
2023-03-06T11:54:28.044Z,2.20
2023-03-06T12:00:01.052Z,2.10
2023-03-06T12:05:12.454Z,1.70
2023-03-06T12:10:24.482Z,2.20
2023-03-06T12:15:50.511Z,2.20
2023-03-06T12:21:23.413Z,2.00
2023-03-06T12:26:56.416Z,2.60
2023-03-06T12:32:01.442Z,2.30
2023-03-06T12:37:38.572Z,2.10
2023-03-06T12:42:55.600Z,2.50
2023-03-06T12:47:58.814Z,2.30
2023-03-06T12:53:04.176Z,1.90
2023-03-06T12:58:27.759Z,3.20
2023-03-06T13:09:04.900Z,2.40
2023-03-06T13:14:42.276Z,1.70
2023-03-06T13:20:16.398Z,1.70
2023-03-06T13:25:30.211Z,2.10
2023-03-06T13:30:35.736Z,2.00
2023-03-06T13:35:40.506Z,3.30
2023-03-06T13:40:42.473Z,1.90
2023-03-06T13:45:46.762Z,2.10
2023-03-06T13:50:49.096Z,1.70
2023-03-06T13:56:03.971Z,2.10
2023-03-06T14:01:24.572Z,2.00
2023-03-06T14:06:37.012Z,2.20
2023-03-06T14:11:45.748Z,2.80
2023-03-06T14:16:50.852Z,2.10
2023-03-06T14:21:57.388Z,2.60
2023-03-06T14:27:00.924Z,2.60
2023-03-06T14:32:05.771Z,2.30
2023-03-06T14:37:20.530Z,22.70
2023-03-06T14:42:27.737Z,3.10
2023-03-06T14:47:32.460Z,5.50
2023-03-06T14:52:35.480Z,5.70
2023-03-06T14:57:37.970Z,8.80
2023-03-06T15:02:39.986Z,3.90
2023-03-06T15:07:42.438Z,3.40
2023-03-06T15:12:44.521Z,3.70
2023-03-06T15:17:48.137Z,3.80
2023-03-06T15:22:50.633Z,3.40
2023-03-06T15:27:56.094Z,3.00
2023-03-06T15:33:19.267Z,3.60
2023-03-06T15:38:31.273Z,3.60
2023-03-06T15:43:38.987Z,3.50
2023-03-06T15:48:51.462Z,3.30
2023-03-06T15:53:59.731Z,11.10
2023-03-06T15:59:32.654Z,20.20
2023-03-06T16:04:34.550Z,73.80
2023-03-06T16:09:36.914Z,9.10
2023-03-06T16:14:39.611Z,4.20
2023-03-06T16:19:41.687Z,9.90
2023-03-06T16:24:43.775Z,6.60
2023-03-06T16:29:46.368Z,4.50
2023-03-06T16:34:48.342Z,3.50
2023-03-06T16:39:50.524Z,6.30
2023-03-06T16:44:52.399Z,6.00
2023-03-06T16:49:57.531Z,8.50
2023-03-06T16:54:59.692Z,18.40
2023-03-06T17:00:01.920Z,15.00
2023-03-06T17:05:07.034Z,22.90
2023-03-06T17:10:13.812Z,19.20
2023-03-06T17:15:22.920Z,13.90
2023-03-06T17:20:27.049Z,19.90
2023-03-06T17:25:29.544Z,22.70
2023-03-06T17:30:35.682Z,15.90
2023-03-06T17:35:39.349Z,13.10
2023-03-06T17:40:41.217Z,13.20
2023-03-06T17:45:43.408Z,20.40
2023-03-06T17:50:53.683Z,13.50
2023-03-06T17:55:59.512Z,10.10
2023-03-06T18:01:17.429Z,9.40
2023-03-06T18:06:22.038Z,10.20
2023-03-06T18:11:24.317Z,8.70
2023-03-06T18:16:26.653Z,10.00
2023-03-06T18:21:28.893Z,11.90
2023-03-06T18:26:33.020Z,11.30
2023-03-06T18:31:41.635Z,20.30
2023-03-06T18:36:46.813Z,23.40
2023-03-06T18:41:49.212Z,15.80
2023-03-06T18:46:52.204Z,12.70
2023-03-06T18:51:55.529Z,14.20
2023-03-06T18:56:58.619Z,15.00
2023-03-06T19:07:06.677Z,26.30
2023-03-06T19:12:11.234Z,83.80
2023-03-06T19:17:15.268Z,20.30
2023-03-06T19:22:22.040Z,14.10
2023-03-06T19:27:26.074Z,14.40
2023-03-06T19:32:28.561Z,15.40
2023-03-06T19:37:32.084Z,14.30
2023-03-06T19:42:34.169Z,14.70
2023-03-06T19:47:36.550Z,25.50
2023-03-06T19:52:38.992Z,51.90
2023-03-06T19:57:41.632Z,39.20
2023-03-06T20:02:43.406Z,32.40
2023-03-06T20:07:47.975Z,30.30
2023-03-06T20:12:50.539Z,30.20
2023-03-06T20:17:52.825Z,25.00
2023-03-06T20:22:54.902Z,22.60
2023-03-06T20:27:56.882Z,24.80
2023-03-06T20:32:59.164Z,48.70
2023-03-06T20:38:01.146Z,37.40
2023-03-06T20:43:03.532Z,30.60
2023-03-06T20:48:06.449Z,28.50
2023-03-06T20:53:10.571Z,25.70
2023-03-06T20:58:13.252Z,22.10
2023-03-06T21:03:17.088Z,42.20
2023-03-06T21:08:19.064Z,47.90
2023-03-06T21:13:21.149Z,27.30
2023-03-06T21:18:23.023Z,17.50
2023-03-06T21:23:24.901Z,16.80
2023-03-06T21:28:27.496Z,16.10
2023-03-06T21:33:29.285Z,16.70
2023-03-06T21:38:31.790Z,17.90
2023-03-06T21:43:33.756Z,17.60
2023-03-06T21:48:35.932Z,20.60
2023-03-06T21:53:41.196Z,21.30
2023-03-06T21:58:44.920Z,27.20
2023-03-06T22:03:47.153Z,22.70
2023-03-06T22:08:49.819Z,28.60
2023-03-06T22:13:55.262Z,32.00
2023-03-06T22:18:57.560Z,36.40
2023-03-06T22:23:59.344Z,39.20
2023-03-06T22:29:01.080Z,38.90
2023-03-06T22:34:03.888Z,20.90
2023-03-06T22:39:05.552Z,19.80
2023-03-06T22:44:07.442Z,17.70
2023-03-06T22:49:11.244Z,18.10
2023-03-06T22:54:12.949Z,17.90
2023-03-06T22:59:14.790Z,16.80
2023-03-06T23:04:16.785Z,17.80
2023-03-06T23:09:21.213Z,18.70
2023-03-06T23:14:23.012Z,19.10
2023-03-06T23:19:25.376Z,19.10
2023-03-06T23:24:28.383Z,19.40
2023-03-06T23:29:30.155Z,18.10
2023-03-06T23:34:31.940Z,18.30
2023-03-06T23:39:33.605Z,18.40
2023-03-06T23:44:36.401Z,17.00
2023-03-06T23:49:39.508Z,20.10
2023-03-06T23:59:43.875Z,22.30
